Time;durP1;ratioP1;P1;durP2;ratioP2;P2;SDS_P1;SDS_P2;PMS_P1;PMS_P2;Temp;Humidity;BMP_temperature;BMP_pressure;BME280_temperature;BME280_humidity;BME280_pressure;Samples;Min_cycle;Max_cycle;Signal;HPM_P1;HPM_P2
2022/10/18 00:02:01;;;;;;;1.50;1.40;;;;;;;18.30;100.00;101074.91;4959498;28;21163;-51
2022/10/18 00:04:28;;;;;;;4.07;3.67;;;;;;;18.36;100.00;101079.13;4960631;28;20458;-51
2022/10/18 00:06:54;;;;;;;7.30;2.83;;;;;;;18.35;100.00;101078.25;4964016;28;20496;-50
2022/10/18 00:09:20;;;;;;;23.87;2.40;;;;;;;18.32;100.00;101085.63;4945760;28;20476;-52
2022/10/18 00:11:47;;;;;;;2.50;2.10;;;;;;;18.47;100.00;101076.78;4950014;29;21082;-51
2022/10/18 00:14:14;;;;;;;3.23;2.83;;;;;;;18.55;100.00;101077.31;4968429;28;20483;-51
2022/10/18 00:16:40;;;;;;;5.50;2.77;;;;;;;18.38;100.00;101088.03;4960958;28;21181;-51
2022/10/18 00:19:06;;;;;;;3.67;2.70;;;;;;;18.32;100.00;101089.19;4954663;28;20524;-53
2022/10/18 00:21:33;;;;;;;1.87;1.77;;;;;;;18.35;100.00;101077.38;4960561;28;20940;-51
2022/10/18 00:23:59;;;;;;;6.13;1.80;;;;;;;18.30;100.00;101079.44;4966696;28;20466;-55
2022/10/18 00:26:27;;;;;;;2.40;2.30;;;;;;;18.21;100.00;101066.41;4966610;28;20467;-51
2022/10/18 00:29:00;;;;;;;3.43;2.97;;;;;;;18.34;100.00;101059.50;4963916;28;20485;-50
2022/10/18 00:31:30;;;;;;;4.10;3.20;;;;;;;18.23;100.00;101051.97;4960088;28;20813;-51
2022/10/18 00:33:58;;;;;;;1.43;1.33;;;;;;;18.35;100.00;101053.16;4966174;28;20460;-52
2022/10/18 00:36:27;;;;;;;3.00;2.40;;;;;;;18.41;100.00;101052.88;4966438;28;20553;-51
2022/10/18 00:38:54;;;;;;;3.30;1.83;;;;;;;18.43;100.00;101055.50;4960493;28;20453;-50
2022/10/18 00:41:25;;;;;;;10.00;3.17;;;;;;;18.45;100.00;101059.84;4961300;28;20431;-51
2022/10/18 00:44:10;;;;;;;2.30;2.17;;;;;;;18.44;100.00;101065.31;4963806;28;20955;-50
2022/10/18 00:46:42;;;;;;;4.60;2.50;;;;;;;18.23;100.00;101067.22;4966519;28;20518;-52
2022/10/18 00:49:22;;;;;;;15.00;2.93;;;;;;;18.32;100.00;101067.63;4952703;28;21015;-51
2022/10/18 00:52:01;;;;;;;3.93;2.57;;;;;;;18.40;100.00;101063.72;4960617;28;20461;-51
2022/10/18 00:54:30;;;;;;;11.47;2.70;;;;;;;18.35;100.00;101066.63;4959523;28;20878;-51
2022/10/18 00:56:57;;;;;;;11.90;2.37;;;;;;;18.35;100.00;101072.00;4962670;28;20459;-54
2022/10/18 00:59:24;;;;;;;7.03;2.70;;;;;;;18.32;100.00;101069.47;4945034;28;20508;-52
2022/10/18 01:01:51;;;;;;;9.00;4.50;;;;;;;18.22;100.00;101076.22;4963877;28;20462;-50
2022/10/18 01:04:18;;;;;;;2.30;2.20;;;;;;;18.15;100.00;101072.09;4955652;28;20482;-52
2022/10/18 01:06:47;;;;;;;6.73;2.20;;;;;;;18.11;100.00;101067.81;4963877;28;20454;-55
2022/10/18 01:09:14;;;;;;;4.43;1.90;;;;;;;18.17;100.00;101062.13;4955686;28;20525;-52
2022/10/18 01:12:02;;;;;;;2.93;2.60;;;;;;;18.19;100.00;101071.00;4958287;28;20449;-51
2022/10/18 01:14:50;;;;;;;5.03;1.47;;;;;;;18.19;100.00;101071.00;4954772;28;20459;-51
2022/10/18 01:17:48;;;;;;;5.93;2.23;;;;;;;18.17;100.00;101064.81;4956490;28;20456;-50
2022/10/18 01:20:38;;;;;;;9.83;2.97;;;;;;;18.14;100.00;101063.16;4961749;28;20476;-54
2022/10/18 01:23:20;;;;;;;1.80;1.70;;;;;;;18.25;100.00;101057.25;4964648;28;20861;-52
2022/10/18 01:26:07;;;;;;;10.40;3.50;;;;;;;18.09;100.00;101045.47;4964401;28;21055;-50
2022/10/18 01:28:51;;;;;;;11.80;2.47;;;;;;;18.03;100.00;101044.81;4960914;28;20470;-51
2022/10/18 01:31:22;;;;;;;3.80;1.30;;;;;;;18.15;100.00;101032.59;4959353;28;20837;-50
2022/10/18 01:33:55;;;;;;;2.83;2.63;;;;;;;18.26;100.00;101032.09;4959617;28;20956;-53
2022/10/18 01:36:32;;;;;;;2.37;2.10;;;;;;;18.34;100.00;101033.44;4957597;28;20426;-52
2022/10/18 01:39:04;;;;;;;3.57;3.37;;;;;;;18.19;100.00;101031.50;4945566;29;20976;-51
2022/10/18 01:41:34;;;;;;;1.83;1.73;;;;;;;18.20;100.00;101021.59;4965695;28;20426;-50
2022/10/18 01:44:03;;;;;;;5.40;2.30;;;;;;;18.21;100.00;101026.03;4954316;28;20501;-52
2022/10/18 01:46:30;;;;;;;3.83;3.27;;;;;;;18.39;100.00;101019.78;4966581;28;20525;-50
2022/10/18 01:48:57;;;;;;;4.90;4.47;;;;;;;18.27;100.00;101021.25;4960786;28;20499;-51
2022/10/18 01:51:25;;;;;;;2.23;2.13;;;;;;;18.23;100.00;101026.84;4965039;28;20466;-50
2022/10/18 01:53:52;;;;;;;2.50;2.30;;;;;;;18.12;100.00;101030.06;4963663;28;20454;-52
2022/10/18 01:56:33;;;;;;;3.53;2.50;;;;;;;18.16;100.00;101026.25;4950417;28;20435;-52
2022/10/18 01:59:23;;;;;;;4.10;2.20;;;;;;;18.34;100.00;101017.28;4959193;28;20991;-53
2022/10/18 02:01:56;;;;;;;2.27;2.17;;;;;;;18.51;100.00;101004.84;4953610;28;20430;-50
2022/10/18 02:04:39;;;;;;;2.60;2.40;;;;;;;18.69;100.00;101022.78;4964955;28;20933;-51
2022/10/18 02:07:27;;;;;;;7.73;2.57;;;;;;;18.62;100.00;101021.31;4964800;28;20425;-50
2022/10/18 02:10:26;;;;;;;4.30;3.80;;;;;;;18.88;100.00;101030.78;4961481;28;20596;-51
2022/10/18 02:12:55;;;;;;;4.23;2.70;;;;;;;19.00;100.00;101043.66;4949488;28;20437;-53
2022/10/18 02:15:29;;;;;;;11.90;2.80;;;;;;;18.69;100.00;101038.06;4960381;28;20462;-52
2022/10/18 02:17:56;;;;;;;2.83;2.30;;;;;;;18.33;100.00;101055.06;4950574;28;20482;-51
2022/10/18 02:20:24;;;;;;;10.93;3.50;;;;;;;18.28;100.00;101086.72;4961903;28;20585;-51
2022/10/18 02:22:54;;;;;;;4.97;2.10;;;;;;;18.35;100.00;101112.38;4961587;28;20433;-52
2022/10/18 02:25:23;;;;;;;7.70;2.23;;;;;;;18.53;100.00;101103.44;4957829;28;20968;-52
2022/10/18 02:27:50;;;;;;;2.40;2.20;;;;;;;18.41;100.00;101103.16;4958088;28;20489;-55
2022/10/18 02:30:17;;;;;;;3.30;2.97;;;;;;;18.21;100.00;101104.09;4962761;28;20499;-50
2022/10/18 02:33:04;;;;;;;1.43;1.27;;;;;;;18.18;100.00;101101.53;4962760;28;20433;-50
2022/10/18 02:35:36;;;;;;;0.97;0.90;;;;;;;18.06;100.00;101087.72;4964044;28;20422;-52
2022/10/18 02:38:05;;;;;;;5.40;0.90;;;;;;;18.25;100.00;101071.59;4962116;28;20534;-50
2022/10/18 02:40:32;;;;;;;1.33;0.90;;;;;;;17.88;100.00;101052.72;4962196;28;20574;-50
2022/10/18 02:42:58;;;;;;;1.87;0.77;;;;;;;17.83;100.00;101050.28;4964265;28;20484;-51
2022/10/18 02:45:26;;;;;;;0.80;0.50;;;;;;;18.12;100.00;101051.59;4960474;28;20545;-51
2022/10/18 02:47:52;;;;;;;20.57;0.90;;;;;;;18.13;100.00;101041.69;4953539;28;20459;-52
2022/10/18 02:50:19;;;;;;;0.50;0.40;;;;;;;18.10;100.00;101052.63;4950276;28;20874;-53
2022/10/18 02:52:45;;;;;;;0.70;0.60;;;;;;;18.21;100.00;101042.19;4957695;28;21804;-52
2022/10/18 02:55:11;;;;;;;1.47;1.47;;;;;;;18.16;100.00;101060.38;4961456;28;20506;-51
2022/10/18 02:57:38;;;;;;;0.97;0.60;;;;;;;18.07;100.00;101050.91;4953486;28;20513;-50
2022/10/18 03:00:05;;;;;;;1.30;0.90;;;;;;;17.83;100.00;101052.97;4964560;28;20482;-54
2022/10/18 03:02:31;;;;;;;0.53;0.40;;;;;;;17.72;100.00;101053.44;4959599;28;20493;-50
2022/10/18 03:04:58;;;;;;;0.50;0.40;;;;;;;17.60;100.00;101039.66;4961518;28;20494;-52
2022/10/18 03:07:24;;;;;;;0.40;0.30;;;;;;;17.61;100.00;101031.50;4957339;28;20437;-53
2022/10/18 03:09:51;;;;;;;4.70;0.30;;;;;;;17.55;100.00;101026.44;4995987;23;20535;-57
2022/10/18 03:12:17;;;;;;;0.40;0.40;;;;;;;17.65;100.00;101021.47;5045928;28;20425;-57
2022/10/18 03:14:44;;;;;;;1.37;0.40;;;;;;;17.76;100.00;101028.16;5044554;28;20451;-57
2022/10/18 03:17:10;;;;;;;0.50;0.30;;;;;;;17.75;100.00;101031.78;5031412;28;20909;-57
2022/10/18 03:19:37;;;;;;;1.73;0.70;;;;;;;17.67;100.00;101044.66;5039887;28;20445;-57
2022/10/18 03:22:04;;;;;;;0.40;0.30;;;;;;;17.62;100.00;101054.78;5049868;28;20478;-57
2022/10/18 03:24:30;;;;;;;4.43;1.50;;;;;;;17.67;100.00;101055.41;5049211;28;20474;-57
2022/10/18 03:26:57;;;;;;;1.53;0.33;;;;;;;17.93;100.00;101056.06;5046080;28;20802;-57
2022/10/18 03:29:23;;;;;;;0.40;0.20;;;;;;;17.94;100.00;101080.22;5048544;28;20567;-57
2022/10/18 03:31:50;;;;;;;1.63;0.70;;;;;;;17.92;100.00;101135.03;5048741;28;20459;-57
2022/10/18 03:34:16;;;;;;;0.40;0.30;;;;;;;17.61;100.00;101147.13;5048586;28;21014;-58
2022/10/18 03:36:43;;;;;;;6.33;1.33;;;;;;;17.43;100.00;101111.19;5026669;28;20446;-57
2022/10/18 03:39:10;;;;;;;1.77;0.80;;;;;;;17.41;100.00;101109.50;5039962;28;20446;-58
2022/10/18 03:41:37;;;;;;;1.90;0.40;;;;;;;17.44;100.00;101107.56;5037438;28;20934;-57
2022/10/18 03:44:03;;;;;;;1.03;0.47;;;;;;;17.48;100.00;101130.66;5038853;28;20503;-57
2022/10/18 03:46:30;;;;;;;1.10;1.00;;;;;;;17.36;100.00;101131.19;5044090;28;20432;-57
2022/10/18 03:48:56;;;;;;;3.17;0.87;;;;;;;17.29;100.00;101126.16;5040327;28;20425;-57
2022/10/18 03:51:23;;;;;;;2.00;0.63;;;;;;;17.47;100.00;101125.34;5048199;28;20469;-57
2022/10/18 03:53:49;;;;;;;0.50;0.40;;;;;;;17.54;100.00;101121.44;5048343;28;20425;-57
2022/10/18 03:56:15;;;;;;;0.60;0.50;;;;;;;17.33;100.00;101095.53;5048440;28;20926;-57
2022/10/18 03:58:42;;;;;;;1.57;1.47;;;;;;;17.32;100.00;101091.97;5022384;28;20851;-60
2022/10/18 04:01:08;;;;;;;1.03;0.83;;;;;;;16.87;100.00;101090.31;5048066;28;20994;-57
2022/10/18 04:03:35;;;;;;;0.97;0.40;;;;;;;16.90;100.00;101091.09;5048406;28;20541;-57
2022/10/18 04:06:02;;;;;;;1.60;0.60;;;;;;;17.07;100.00;101086.75;5043355;28;20508;-57
2022/10/18 04:08:29;;;;;;;0.80;0.80;;;;;;;17.17;100.00;101081.88;5048191;28;20429;-57
2022/10/18 04:10:55;;;;;;;1.37;0.63;;;;;;;17.03;100.00;101078.91;5045026;28;20991;-57
2022/10/18 04:13:22;;;;;;;0.63;0.60;;;;;;;17.06;100.00;101084.16;5043553;28;20456;-57
2022/10/18 04:15:48;;;;;;;0.60;0.40;;;;;;;17.18;100.00;101080.94;5047720;28;20477;-57
2022/10/18 04:18:14;;;;;;;0.50;0.40;;;;;;;17.19;100.00;101082.69;5019877;28;20484;-61
2022/10/18 04:20:41;;;;;;;0.60;0.40;;;;;;;17.20;100.00;101086.25;5045369;28;20822;-57
2022/10/18 04:23:07;;;;;;;8.60;1.07;;;;;;;17.28;100.00;101084.09;5038982;28;20429;-57
2022/10/18 04:25:34;;;;;;;0.90;0.50;;;;;;;17.28;100.00;101092.16;5037357;28;20433;-57
2022/10/18 04:28:00;;;;;;;0.50;0.40;;;;;;;17.30;100.00;101084.91;5051707;28;20456;-57
2022/10/18 04:30:26;;;;;;;0.70;0.57;;;;;;;17.21;100.00;101086.16;5048864;28;20477;-58
2022/10/18 04:32:53;;;;;;;0.50;0.30;;;;;;;17.55;100.00;101085.56;5038163;28;20476;-57
2022/10/18 04:35:23;;;;;;;2.97;1.10;;;;;;;17.62;100.00;101078.09;5040880;28;21009;-58
2022/10/18 04:37:49;;;;;;;0.50;0.40;;;;;;;17.53;100.00;101087.44;5038703;28;20447;-57
2022/10/18 04:40:16;;;;;;;1.27;1.17;;;;;;;17.44;100.00;101085.19;5051165;28;20445;-57
2022/10/18 04:42:42;;;;;;;9.67;0.90;;;;;;;17.37;100.00;101083.69;5051666;28;20544;-57
2022/10/18 04:45:09;;;;;;;1.33;1.03;;;;;;;17.35;100.00;101081.06;5040145;28;20437;-57
2022/10/18 04:47:36;;;;;;;0.80;0.80;;;;;;;17.52;100.00;101079.44;5051427;28;20691;-57
2022/10/18 04:50:03;;;;;;;9.53;0.73;;;;;;;17.35;100.00;101064.94;5051179;28;20473;-58
2022/10/18 04:52:30;;;;;;;0.77;0.57;;;;;;;17.17;100.00;101074.69;5033390;28;20508;-57
2022/10/18 04:54:56;;;;;;;0.80;0.70;;;;;;;17.20;100.00;101073.69;5051003;28;20451;-57
2022/10/18 04:57:23;;;;;;;1.20;1.00;;;;;;;17.29;100.00;101075.09;5050983;28;20488;-57
2022/10/18 04:59:49;;;;;;;5.93;1.47;;;;;;;17.29;100.00;101075.09;5051302;28;20470;-57
2022/10/18 05:02:15;;;;;;;3.00;1.13;;;;;;;17.25;100.00;101082.41;5050988;28;20454;-57
2022/10/18 05:04:42;;;;;;;2.60;1.40;;;;;;;17.31;100.00;101094.72;5051294;28;20459;-57
2022/10/18 05:07:08;;;;;;;1.47;1.37;;;;;;;17.31;100.00;101100.97;5051271;28;20429;-57
2022/10/18 05:09:35;;;;;;;2.90;1.50;;;;;;;17.33;100.00;101114.34;5034982;28;20508;-59
2022/10/18 05:12:01;;;;;;;0.77;0.53;;;;;;;17.50;100.00;101121.66;5049066;28;20454;-58
2022/10/18 05:14:27;;;;;;;0.60;0.50;;;;;;;17.94;100.00;101136.69;5046183;28;20454;-58
2022/10/18 05:16:54;;;;;;;10.40;1.33;;;;;;;17.79;100.00;101139.22;5033331;28;20429;-58
2022/10/18 05:19:20;;;;;;;1.13;1.03;;;;;;;17.99;100.00;101137.38;5027495;28;20424;-58
2022/10/18 05:21:47;;;;;;;1.57;1.00;;;;;;;17.62;100.00;101129.19;5050561;28;20830;-58
2022/10/18 05:24:13;;;;;;;0.60;0.53;;;;;;;17.51;100.00;101120.72;5050469;28;21041;-58
2022/10/18 05:26:39;;;;;;;1.53;0.80;;;;;;;17.46;100.00;101119.09;5050689;28;20454;-58
2022/10/18 05:29:06;;;;;;;4.00;1.47;;;;;;;17.46;100.00;101124.47;5050598;28;20463;-58
2022/10/18 05:31:33;;;;;;;3.00;1.57;;;;;;;17.53;100.00;101116.13;5050356;28;21011;-58
2022/10/18 05:34:00;;;;;;;3.40;1.93;;;;;;;17.28;100.00;101102.91;5050514;28;20918;-58
2022/10/18 05:36:26;;;;;;;1.20;1.10;;;;;;;17.31;100.00;101103.66;5049829;28;20463;-58
2022/10/18 05:38:53;;;;;;;1.47;1.37;;;;;;;17.32;100.00;101104.53;5050439;28;20455;-58
2022/10/18 05:41:20;;;;;;;1.43;1.33;;;;;;;17.19;100.00;101088.06;5050488;28;20466;-58
2022/10/18 05:43:46;;;;;;;1.33;1.23;;;;;;;17.43;100.00;101116.56;5042850;28;20484;-58
2022/10/18 05:46:13;;;;;;;2.33;1.30;;;;;;;17.34;100.00;101111.56;5045581;28;20451;-58
2022/10/18 05:48:43;;;;;;;25.37;1.67;;;;;;;17.28;100.00;101114.53;5032487;28;20454;-58
2022/10/18 05:51:09;;;;;;;1.43;1.33;;;;;;;17.28;100.00;101116.34;5049625;28;20970;-58
2022/10/18 05:53:35;;;;;;;2.23;2.13;;;;;;;17.31;100.00;101118.91;5050194;28;20783;-58
2022/10/18 05:56:04;;;;;;;2.00;1.90;;;;;;;17.26;100.00;101115.53;5050348;28;20461;-59
2022/10/18 05:58:31;;;;;;;5.00;1.90;;;;;;;17.23;100.00;101121.03;5049980;28;20431;-58
2022/10/18 06:00:59;;;;;;;1.27;1.17;;;;;;;17.28;100.00;101124.41;5049682;28;20454;-58
2022/10/18 06:03:26;;;;;;;1.23;1.13;;;;;;;17.31;100.00;101113.53;5049908;28;20846;-58
2022/10/18 06:06:03;;;;;;;3.53;1.87;;;;;;;17.39;100.00;101132.88;5049661;28;20435;-58
2022/10/18 06:08:30;;;;;;;2.40;1.77;;;;;;;17.35;100.00;101128.56;5032115;28;20839;-59
2022/10/18 06:10:56;;;;;;;2.10;2.00;;;;;;;17.24;100.00;101120.09;5046781;28;20469;-59
2022/10/18 06:13:23;;;;;;;2.70;2.50;;;;;;;17.15;100.00;101126.75;5036921;28;20777;-58
2022/10/18 06:15:54;;;;;;;1.87;1.77;;;;;;;17.17;100.00;101096.19;5049167;28;20455;-58
2022/10/18 06:18:20;;;;;;;2.37;2.27;;;;;;;17.00;100.00;101096.03;5037729;28;20843;-58
2022/10/18 06:20:47;;;;;;;2.33;2.00;;;;;;;16.96;100.00;101107.81;5031730;28;20966;-58
2022/10/18 06:23:13;;;;;;;1.77;1.63;;;;;;;17.13;100.00;101107.09;5049504;28;20440;-58
2022/10/18 06:25:40;;;;;;;1.33;1.23;;;;;;;17.01;100.00;101099.59;5049786;28;20505;-58
2022/10/18 06:28:06;;;;;;;7.93;3.07;;;;;;;16.85;100.00;101099.34;5049679;28;20501;-58
2022/10/18 06:30:37;;;;;;;2.53;2.33;;;;;;;16.87;100.00;101103.72;5049480;28;20494;-58
2022/10/18 06:33:03;;;;;;;2.03;1.93;;;;;;;16.93;100.00;101101.72;5049442;28;20455;-58
2022/10/18 06:35:30;;;;;;;3.57;2.13;;;;;;;17.09;100.00;101113.56;5049552;28;20480;-59
2022/10/18 06:37:56;;;;;;;3.10;2.90;;;;;;;17.19;100.00;101114.94;5049130;28;20509;-58
2022/10/18 06:40:23;;;;;;;1.77;1.67;;;;;;;17.31;100.00;101129.66;5049333;28;20467;-59
2022/10/18 06:42:49;;;;;;;1.37;1.27;;;;;;;17.26;100.00;101142.38;5049142;28;20432;-58
2022/10/18 06:45:32;;;;;;;2.73;2.40;;;;;;;17.17;100.00;101139.19;5030099;28;20808;-58
2022/10/18 06:47:58;;;;;;;1.80;1.70;;;;;;;17.31;100.00;101149.34;5048518;28;20453;-59
2022/10/18 06:50:25;;;;;;;2.50;1.80;;;;;;;17.31;100.00;101154.72;5049260;28;20527;-59
2022/10/18 06:52:51;;;;;;;1.70;1.60;;;;;;;17.33;100.00;101150.16;5049402;28;20451;-59
2022/10/18 06:55:17;;;;;;;2.50;2.40;;;;;;;17.36;100.00;101150.00;5049892;28;20425;-58
2022/10/18 06:57:44;;;;;;;1.83;1.73;;;;;;;17.34;100.00;101145.63;5048988;28;20434;-58
2022/10/18 07:00:11;;;;;;;2.23;2.13;;;;;;;17.36;100.00;101143.75;5049199;28;20491;-59
2022/10/18 07:02:40;;;;;;;2.07;1.87;;;;;;;17.38;100.00;101150.81;5049225;28;20429;-58
2022/10/18 07:05:07;;;;;;;2.37;1.57;;;;;;;17.45;100.00;101156.81;5048917;28;21029;-58
2022/10/18 07:07:34;;;;;;;2.20;2.03;;;;;;;17.62;100.00;101162.31;5048777;28;20455;-59
2022/10/18 07:10:01;;;;;;;2.40;2.20;;;;;;;17.70;100.00;101167.41;5030021;28;20489;-59
2022/10/18 07:12:27;;;;;;;10.73;2.60;;;;;;;17.72;100.00;101168.22;5041888;28;20537;-59
2022/10/18 07:14:54;;;;;;;2.03;1.87;;;;;;;17.79;100.00;101171.50;5041167;28;20455;-58
2022/10/18 07:17:20;;;;;;;1.40;1.27;;;;;;;17.71;100.00;101177.22;5045350;28;20514;-59
2022/10/18 07:19:46;;;;;;;6.23;2.17;;;;;;;17.62;100.00;101180.28;5041143;28;20499;-58
2022/10/18 07:22:13;;;;;;;2.47;1.90;;;;;;;17.56;100.00;101183.25;5048683;28;20483;-59
2022/10/18 07:24:39;;;;;;;2.20;2.00;;;;;;;17.64;100.00;101181.06;5048778;28;20791;-58
2022/10/18 07:27:06;;;;;;;2.27;2.07;;;;;;;17.67;100.00;101176.44;5048558;28;20425;-59
2022/10/18 07:29:33;;;;;;;2.70;2.50;;;;;;;17.77;100.00;101179.63;5048895;28;20514;-58
2022/10/18 07:31:59;;;;;;;2.57;2.37;;;;;;;17.70;100.00;101186.25;5048316;28;20534;-59
2022/10/18 07:34:27;;;;;;;2.83;2.60;;;;;;;17.73;100.00;101180.72;5048805;28;20450;-59
2022/10/18 07:36:54;;;;;;;7.87;3.00;;;;;;;17.74;100.00;101182.47;5049245;28;20432;-59
2022/10/18 07:39:20;;;;;;;14.13;2.40;;;;;;;17.75;100.00;101182.38;5048487;28;20511;-59
2022/10/18 07:41:47;;;;;;;3.80;2.23;;;;;;;17.77;100.00;101188.56;5049046;28;20428;-59
2022/10/18 07:44:13;;;;;;;1.83;1.63;;;;;;;17.77;100.00;101177.81;5037808;28;21001;-59
2022/10/18 07:46:39;;;;;;;3.23;3.03;;;;;;;17.82;100.00;101182.09;5017752;28;20882;-59
2022/10/18 07:49:06;;;;;;;1.63;1.53;;;;;;;17.82;100.00;101183.00;5048571;28;20454;-59
2022/10/18 07:51:34;;;;;;;3.20;2.03;;;;;;;18.11;100.00;101188.91;5048782;28;20997;-59
2022/10/18 07:54:01;;;;;;;2.73;1.57;;;;;;;17.98;100.00;101184.06;5048755;28;20527;-59
2022/10/18 07:56:28;;;;;;;14.43;3.80;;;;;;;17.93;100.00;101193.28;5048765;28;20455;-59
2022/10/18 07:58:55;;;;;;;2.90;2.67;;;;;;;18.04;100.00;101197.22;5049995;28;20425;-59
2022/10/18 08:01:23;;;;;;;8.43;4.10;;;;;;;18.46;100.00;101200.72;5052302;28;20921;-58
2022/10/18 08:03:50;;;;;;;2.77;2.47;;;;;;;18.39;100.00;101208.22;5051991;28;20941;-59
2022/10/18 08:06:18;;;;;;;2.77;2.57;;;;;;;18.40;100.00;101218.03;5034405;28;20952;-59
2022/10/18 08:08:45;;;;;;;6.63;2.50;;;;;;;18.44;100.00;101213.38;5051931;28;20948;-59
2022/10/18 08:11:14;;;;;;;4.90;2.60;;;;;;;18.30;100.00;101214.03;5049112;28;21025;-58
2022/10/18 08:13:41;;;;;;;3.57;3.27;;;;;;;18.45;100.00;101213.31;5047373;28;20886;-60
2022/10/18 08:16:13;;;;;;;3.03;2.83;;;;;;;18.79;100.00;101219.84;5052234;28;20824;-59
2022/10/18 08:18:40;;;;;;;3.57;2.93;;;;;;;18.68;100.00;101223.06;5040228;28;20459;-60
2022/10/18 08:21:08;;;;;;;2.40;2.20;;;;;;;18.59;100.00;101223.44;5051825;28;20458;-60
2022/10/18 08:23:36;;;;;;;3.23;3.00;;;;;;;18.56;100.00;101216.38;5051492;28;20429;-59
2022/10/18 08:26:04;;;;;;;1.67;1.57;;;;;;;18.54;100.00;101214.72;5051926;28;20483;-60
2022/10/18 08:28:32;;;;;;;3.10;2.27;;;;;;;18.56;100.00;101215.50;5051700;28;20972;-60
2022/10/18 08:31:06;;;;;;;1.53;1.43;;;;;;;18.74;100.00;101222.75;5052372;28;20464;-58
2022/10/18 08:33:34;;;;;;;2.17;1.70;;;;;;;18.78;100.00;101228.88;5052155;28;20428;-58
2022/10/18 08:36:04;;;;;;;1.37;1.27;;;;;;;19.11;100.00;101234.47;5034722;28;20433;-58
2022/10/18 08:38:33;;;;;;;1.20;1.10;;;;;;;19.11;100.00;101239.84;5047193;28;20479;-58
2022/10/18 08:41:13;;;;;;;1.13;1.03;;;;;;;18.93;100.00;101233.53;5032926;28;20471;-58
2022/10/18 08:43:50;;;;;;;1.37;1.27;;;;;;;19.06;100.00;101234.69;5033309;28;20498;-58
2022/10/18 08:46:16;;;;;;;1.50;1.40;;;;;;;18.76;100.00;101236.13;5032306;28;20974;-58
2022/10/18 08:48:47;;;;;;;1.20;0.80;;;;;;;18.63;100.00;101242.09;5041456;28;20459;-58
2022/10/18 08:51:36;;;;;;;1.30;1.20;;;;;;;18.99;100.00;101240.44;5051957;28;20560;-58
2022/10/18 08:54:09;;;;;;;2.03;1.80;;;;;;;19.04;100.00;101241.09;5051897;28;20844;-58
2022/10/18 08:56:38;;;;;;;1.90;1.80;;;;;;;19.03;100.00;101237.50;5051613;28;20421;-58
2022/10/18 08:59:10;;;;;;;5.37;1.93;;;;;;;19.16;100.00;101244.06;5051913;28;20487;-58
2022/10/18 09:01:48;;;;;;;2.10;2.00;;;;;;;18.90;100.00;101250.69;5043806;28;20443;-58
2022/10/18 09:04:29;;;;;;;20.23;1.80;;;;;;;19.24;100.00;101251.78;5047865;28;20451;-58
2022/10/18 09:07:08;;;;;;;1.43;1.17;;;;;;;19.12;100.00;101250.56;5051110;28;20429;-58
2022/10/18 09:09:40;;;;;;;3.40;1.60;;;;;;;19.03;100.00;101245.59;5051625;28;20510;-59
2022/10/18 09:12:25;;;;;;;0.80;0.80;;;;;;;19.01;100.00;101252.00;5047527;28;20880;-60
2022/10/18 09:15:13;;;;;;;0.80;0.73;;;;;;;19.19;100.00;101254.72;5046146;28;20429;-60
2022/10/18 09:18:03;;;;;;;0.73;0.73;;;;;;;18.86;100.00;101251.81;5044670;28;20426;-60
2022/10/18 09:20:57;;;;;;;0.90;0.77;;;;;;;18.83;100.00;101245.69;5014465;28;20457;-60
2022/10/18 09:23:47;;;;;;;0.90;0.60;;;;;;;18.88;100.00;101247.22;5050514;28;20457;-60
2022/10/18 09:26:22;;;;;;;0.50;0.40;;;;;;;19.19;100.00;101251.16;5051388;28;20446;-60
2022/10/18 09:28:59;;;;;;;0.70;0.50;;;;;;;19.27;100.00;101258.84;5050412;28;20991;-60
2022/10/18 09:31:41;;;;;;;3.70;0.87;;;;;;;19.05;100.00;101259.91;5050270;28;20498;-60
2022/10/18 09:34:10;;;;;;;0.50;0.40;;;;;;;18.96;100.00;101257.63;5033187;28;20918;-59
2022/10/18 09:36:38;;;;;;;0.40;0.30;;;;;;;18.85;100.00;101254.56;5050583;28;20447;-59
2022/10/18 09:39:12;;;;;;;0.50;0.40;;;;;;;19.00;100.00;101244.88;5050701;28;20462;-59
2022/10/18 09:41:50;;;;;;;0.40;0.30;;;;;;;18.90;100.00;101239.06;5050291;28;20422;-59
2022/10/18 09:44:32;;;;;;;0.53;0.47;;;;;;;19.02;100.00;101241.16;5039699;28;20426;-59
2022/10/18 09:47:01;;;;;;;0.43;0.30;;;;;;;19.19;100.00;101246.63;5050496;28;20508;-59
2022/10/18 09:49:37;;;;;;;0.50;0.40;;;;;;;19.00;100.00;101237.66;5049885;28;20486;-59
2022/10/18 09:52:11;;;;;;;0.77;0.60;;;;;;;18.99;100.00;101229.66;5050047;28;20827;-59
2022/10/18 09:54:48;;;;;;;3.60;0.50;;;;;;;19.00;100.00;101229.59;5049895;28;20421;-59
2022/10/18 09:57:24;;;;;;;0.40;0.30;;;;;;;19.12;100.00;101236.19;5049941;28;20501;-59
2022/10/18 09:59:50;;;;;;;0.50;0.30;;;;;;;19.27;100.00;101230.06;5049862;28;20448;-59
2022/10/18 10:02:20;;;;;;;1.73;0.50;;;;;;;19.26;100.00;101232.84;5049659;28;20466;-59
2022/10/18 10:04:48;;;;;;;0.40;0.20;;;;;;;19.45;100.00;101234.53;5049687;28;20457;-59
2022/10/18 10:07:22;;;;;;;0.80;0.80;;;;;;;19.48;100.00;101242.47;5049578;28;20434;-59
2022/10/18 10:10:02;;;;;;;1.03;0.40;;;;;;;19.67;100.00;101249.66;5049365;28;20471;-60
2022/10/18 10:12:37;;;;;;;0.60;0.40;;;;;;;19.52;100.00;101251.28;5047178;28;20515;-59
2022/10/18 10:15:25;;;;;;;0.50;0.40;;;;;;;19.77;100.00;101251.81;5044954;28;20852;-59
2022/10/18 10:18:05;;;;;;;0.50;0.30;;;;;;;19.60;100.00;101249.13;5041076;28;20422;-59
2022/10/18 10:20:47;;;;;;;0.50;0.40;;;;;;;19.86;100.00;101260.38;5048358;28;20477;-59
2022/10/18 10:23:13;;;;;;;0.40;0.30;;;;;;;20.20;100.00;101271.19;5048225;28;20446;-60
2022/10/18 10:25:41;;;;;;;0.57;0.47;;;;;;;19.97;100.00;101279.59;5037172;28;20458;-59
2022/10/18 10:28:17;;;;;;;2.77;1.07;;;;;;;19.80;100.00;101277.78;5049461;28;20512;-59
2022/10/18 10:30:43;;;;;;;0.50;0.40;;;;;;;19.78;100.00;101279.69;5049816;28;20870;-58
2022/10/18 10:33:32;;;;;;;0.40;0.20;;;;;;;19.68;100.00;101281.97;5049358;28;20526;-58
2022/10/18 10:36:00;;;;;;;0.97;0.60;;;;;;;19.71;100.00;101279.09;5049542;28;20471;-59
2022/10/18 10:38:28;;;;;;;0.63;0.40;;;;;;;19.94;100.00;101280.63;5048970;28;20804;-58
2022/10/18 10:40:56;;;;;;;0.40;0.30;;;;;;;19.98;100.00;101276.81;5049098;28;20449;-59
2022/10/18 10:43:24;;;;;;;0.60;0.40;;;;;;;19.95;100.00;101282.38;5045366;28;20506;-58
2022/10/18 10:46:12;;;;;;;0.43;0.30;;;;;;;20.11;100.00;101282.44;5043861;28;20454;-58
2022/10/18 10:48:59;;;;;;;1.23;0.40;;;;;;;19.96;100.00;101283.25;5048950;28;20458;-59
2022/10/18 10:51:55;;;;;;;0.47;0.30;;;;;;;19.95;100.00;101286.91;5049070;28;20565;-59
2022/10/18 10:54:44;;;;;;;0.63;0.30;;;;;;;20.08;100.00;101288.88;5048705;28;20946;-59
2022/10/18 10:57:22;;;;;;;1.77;0.37;;;;;;;20.07;100.00;101284.44;5048872;28;20450;-58
2022/10/18 10:59:55;;;;;;;0.50;0.37;;;;;;;20.39;100.00;101280.03;5048824;28;20524;-59
2022/10/18 11:02:27;;;;;;;0.90;0.47;;;;;;;20.64;100.00;101274.22;5048846;28;20543;-59
2022/10/18 11:04:55;;;;;;;0.43;0.30;;;;;;;20.84;100.00;101274.97;5050437;28;20474;-59
2022/10/18 11:07:42;;;;;;;2.00;0.60;;;;;;;20.68;100.00;101274.91;5048747;28;20458;-59
2022/10/18 11:10:15;;;;;;;0.53;0.30;;;;;;;20.43;100.00;101277.22;5046817;28;21215;-59
2022/10/18 11:12:48;;;;;;;0.60;0.50;;;;;;;20.31;100.00;101278.72;5023376;28;20526;-58
2022/10/18 11:15:17;;;;;;;0.87;0.63;;;;;;;20.44;100.00;101282.53;5044003;28;20465;-58
2022/10/18 11:17:58;;;;;;;0.40;0.30;;;;;;;20.78;100.00;101272.59;5042163;28;20455;-59
2022/10/18 11:20:36;;;;;;;1.10;0.90;;;;;;;20.48;100.00;101275.13;5045368;28;20470;-59
2022/10/18 11:23:06;;;;;;;0.43;0.30;;;;;;;20.33;100.00;101269.56;5048847;28;20466;-59
2022/10/18 11:26:02;;;;;;;0.60;0.40;;;;;;;20.89;100.00;101267.47;5048577;28;20429;-59
2022/10/18 11:28:50;;;;;;;0.50;0.33;;;;;;;20.29;100.00;101273.41;5048524;28;20504;-59
2022/10/18 11:31:27;;;;;;;0.60;0.30;;;;;;;20.22;100.00;101274.66;5048593;28;20541;-59
2022/10/18 11:34:01;;;;;;;0.77;0.40;;;;;;;20.15;100.00;101275.97;5050221;28;20421;-59